createdAt,value
2018-11-23T00:00:50.600Z,41.25
2018-11-23T00:03:19.028Z,42.27
2018-11-23T00:05:53.000Z,47.13
2018-11-23T00:08:21.351Z,48.75
2018-11-23T00:10:49.678Z,42.43
2018-11-23T00:13:18.036Z,45.52
2018-11-23T00:15:46.641Z,45.73
2018-11-23T00:18:14.996Z,45.90
2018-11-23T00:20:43.436Z,48.50
2018-11-23T00:23:11.968Z,51.50
2018-11-23T00:25:40.394Z,47.35
2018-11-23T00:28:08.832Z,49.58
2018-11-23T00:30:37.365Z,54.03
2018-11-23T00:33:05.856Z,55.75
2018-11-23T00:35:34.271Z,55.40
2018-11-23T00:38:02.731Z,49.10
2018-11-23T00:40:32.091Z,55.03
2018-11-23T00:43:00.908Z,56.98
2018-11-23T00:45:29.415Z,60.38
2018-11-23T00:47:58.709Z,60.50
2018-11-23T00:50:27.375Z,47.60
2018-11-23T00:52:56.889Z,58.95
2018-11-23T00:55:26.139Z,52.78
2018-11-23T00:57:54.662Z,62.25
2018-11-23T01:00:26.085Z,63.40
2018-11-23T01:02:55.051Z,67.27
2018-11-23T01:05:23.773Z,63.90
2018-11-23T01:07:52.268Z,65.57
2018-11-23T01:10:21.827Z,60.03
2018-11-23T01:12:51.235Z,61.23
2018-11-23T01:15:19.671Z,63.50
2018-11-23T01:17:48.098Z,61.05
2018-11-23T01:20:17.938Z,59.15
2018-11-23T01:22:46.685Z,62.30
2018-11-23T01:25:15.971Z,55.48
2018-11-23T01:27:45.383Z,62.10
2018-11-23T01:30:16.242Z,58.90
2018-11-23T01:32:44.796Z,64.17
2018-11-23T01:35:13.620Z,57.40
2018-11-23T01:37:42.490Z,55.70
2018-11-23T01:40:14.101Z,62.08
2018-11-23T01:42:42.594Z,53.48
2018-11-23T01:45:11.608Z,58.38
2018-11-23T01:47:40.128Z,57.65
2018-11-23T01:50:11.423Z,59.80
2018-11-23T01:52:39.940Z,58.28
2018-11-23T01:55:09.469Z,52.45
2018-11-23T01:57:38.580Z,55.28
2018-11-23T02:00:08.336Z,59.33
2018-11-23T02:02:36.823Z,50.12
2018-11-23T02:05:05.544Z,55.15
2018-11-23T02:07:33.949Z,57.40
2018-11-23T02:10:02.365Z,61.15
2018-11-23T02:12:30.767Z,60.45
2018-11-23T02:14:59.156Z,53.23
2018-11-23T02:17:27.583Z,52.40
2018-11-23T02:19:57.192Z,57.90
2018-11-23T02:22:26.406Z,54.83
2018-11-23T02:24:54.836Z,55.30
2018-11-23T02:27:23.648Z,64.95
2018-11-23T02:29:52.051Z,61.73
2018-11-23T02:32:20.489Z,57.30
2018-11-23T02:34:48.929Z,61.80
2018-11-23T02:37:17.384Z,53.80
2018-11-23T02:39:45.809Z,60.70
2018-11-23T02:42:14.271Z,56.25
2018-11-23T02:44:42.669Z,52.20
2018-11-23T02:47:11.054Z,55.45
2018-11-23T02:49:39.491Z,55.10
2018-11-23T02:52:08.075Z,59.88
2018-11-23T02:54:36.535Z,60.90
2018-11-23T02:57:05.568Z,58.70
2018-11-23T02:59:33.986Z,60.75
2018-11-23T03:02:02.452Z,52.50
2018-11-23T03:04:30.845Z,52.08
2018-11-23T03:06:59.308Z,54.30
2018-11-23T03:09:27.712Z,55.92
2018-11-23T03:11:56.178Z,68.72
2018-11-23T03:14:24.555Z,64.67
2018-11-23T03:16:52.955Z,68.35
2018-11-23T03:19:21.396Z,84.50
2018-11-23T03:21:49.832Z,65.05
2018-11-23T03:24:18.257Z,54.33
2018-11-23T03:26:46.721Z,58.52
2018-11-23T03:29:15.166Z,56.40
2018-11-23T03:31:43.636Z,56.53
2018-11-23T03:34:12.086Z,55.08
2018-11-23T03:36:40.511Z,57.05
2018-11-23T03:39:09.475Z,58.92
2018-11-23T03:41:37.887Z,54.05
2018-11-23T03:44:06.340Z,58.38
2018-11-23T03:46:34.835Z,55.28
2018-11-23T03:49:03.400Z,52.75
2018-11-23T03:51:31.888Z,57.80
2018-11-23T03:54:01.029Z,57.83
2018-11-23T03:56:29.531Z,68.22
2018-11-23T03:58:58.066Z,61.08
2018-11-23T04:01:26.486Z,65.92
2018-11-23T04:03:54.945Z,63.75
2018-11-23T04:06:23.373Z,58.50
2018-11-23T04:08:52.160Z,64.90
2018-11-23T04:11:20.747Z,56.85
2018-11-23T04:13:49.161Z,63.80
2018-11-23T04:16:17.613Z,58.52
2018-11-23T04:18:46.055Z,59.83
2018-11-23T04:21:14.518Z,53.87
2018-11-23T04:23:42.931Z,62.83
2018-11-23T04:28:43.703Z,61.00
2018-11-23T04:31:13.235Z,61.60
2018-11-23T04:33:41.660Z,54.27
2018-11-23T04:36:10.177Z,69.65
2018-11-23T04:38:38.697Z,65.95
2018-11-23T04:41:07.131Z,62.08
2018-11-23T04:43:35.597Z,54.73
2018-11-23T04:46:04.007Z,60.50
2018-11-23T04:48:32.639Z,61.08
2018-11-23T04:51:01.161Z,58.50
2018-11-23T04:53:29.601Z,53.48
2018-11-23T04:55:57.998Z,60.83
2018-11-23T04:58:26.499Z,57.10
2018-11-23T05:00:54.949Z,53.68
2018-11-23T05:03:23.364Z,51.10
2018-11-23T05:05:51.747Z,66.33
2018-11-23T05:08:20.204Z,61.08
2018-11-23T05:10:48.659Z,62.90
2018-11-23T05:13:17.140Z,58.50
2018-11-23T05:15:45.643Z,46.42
2018-11-23T05:18:14.107Z,54.83
2018-11-23T05:20:42.560Z,49.48
2018-11-23T05:23:11.008Z,48.73
2018-11-23T05:25:39.459Z,56.45
2018-11-23T05:28:07.835Z,50.43
2018-11-23T05:30:36.260Z,51.48
2018-11-23T05:33:10.878Z,43.87
2018-11-23T05:35:39.269Z,40.73
2018-11-23T05:38:07.734Z,46.53
2018-11-23T05:40:36.215Z,41.98
2018-11-23T05:43:04.939Z,50.70
2018-11-23T05:45:33.409Z,48.60
2018-11-23T05:48:01.836Z,47.95
2018-11-23T05:50:30.308Z,47.23
2018-11-23T05:52:58.757Z,47.38
2018-11-23T05:55:27.339Z,42.98
2018-11-23T05:57:55.785Z,47.10
2018-11-23T06:00:26.605Z,47.50
2018-11-23T06:02:55.089Z,51.68
2018-11-23T06:05:23.551Z,48.70
2018-11-23T06:07:51.999Z,45.45
2018-11-23T06:10:21.010Z,45.28
2018-11-23T06:12:49.443Z,50.80
2018-11-23T06:15:19.545Z,41.65
2018-11-23T06:17:48.577Z,46.23
2018-11-23T06:20:19.093Z,55.08
2018-11-23T06:22:48.571Z,54.73
2018-11-23T06:25:22.228Z,48.35
2018-11-23T06:27:50.728Z,53.00
2018-11-23T06:33:12.137Z,55.80
2018-11-23T06:35:40.464Z,55.92
2018-11-23T06:38:08.808Z,42.65
2018-11-23T06:40:37.141Z,49.85
2018-11-23T06:43:05.840Z,43.68
2018-11-23T06:45:37.750Z,45.05
2018-11-23T06:48:06.849Z,43.80
2018-11-23T06:50:35.352Z,51.60
2018-11-23T06:53:03.704Z,45.05
2018-11-23T06:55:32.045Z,52.00
2018-11-23T06:58:00.415Z,51.37
2018-11-23T07:00:28.741Z,65.17
2018-11-23T07:02:59.238Z,52.17
2018-11-23T07:05:25.479Z,52.33
2018-11-23T07:07:53.855Z,52.70
2018-11-23T07:10:23.171Z,50.58
2018-11-23T07:12:51.511Z,56.90
2018-11-23T07:15:20.371Z,54.85
2018-11-23T07:17:48.728Z,59.03
2018-11-23T07:20:17.116Z,61.68
2018-11-23T07:22:45.475Z,53.13
2018-11-23T07:25:14.517Z,54.38
2018-11-23T07:27:43.340Z,50.60
2018-11-23T07:30:14.665Z,47.78
2018-11-23T07:32:43.290Z,47.93
2018-11-23T07:35:11.919Z,71.65
2018-11-23T07:37:40.393Z,50.08
2018-11-23T07:40:20.996Z,47.62
2018-11-23T07:42:49.472Z,54.65
2018-11-23T07:45:17.912Z,48.90
2018-11-23T07:47:46.335Z,48.90
2018-11-23T07:50:14.804Z,51.75
2018-11-23T07:52:43.237Z,55.85
2018-11-23T07:55:12.521Z,48.10
2018-11-23T07:57:41.222Z,51.33
2018-11-23T08:00:15.527Z,49.48
2018-11-23T08:02:44.616Z,45.83
2018-11-23T08:05:14.329Z,50.40
2018-11-23T08:07:42.770Z,37.03
2018-11-23T08:10:11.330Z,59.00
2018-11-23T08:12:40.920Z,60.83
2018-11-23T08:15:11.353Z,54.95
2018-11-23T08:17:40.087Z,51.48
2018-11-23T08:20:09.744Z,47.13
2018-11-23T08:22:38.212Z,53.20
2018-11-23T08:25:07.379Z,50.25
2018-11-23T08:27:35.899Z,46.13
2018-11-23T08:30:05.318Z,45.92
2018-11-23T08:32:33.817Z,50.80
2018-11-23T08:35:02.246Z,41.28
2018-11-23T08:37:30.748Z,45.52
2018-11-23T08:39:59.179Z,41.48
2018-11-23T08:42:27.629Z,38.33
2018-11-23T08:44:56.271Z,40.57
2018-11-23T08:47:24.773Z,27.47
2018-11-23T08:49:53.160Z,32.47
2018-11-23T08:52:21.719Z,29.50
2018-11-23T08:54:50.163Z,25.30
2018-11-23T08:57:18.617Z,15.53
2018-11-23T08:59:47.179Z,18.67
2018-11-23T09:02:15.647Z,16.23
2018-11-23T09:04:44.121Z,19.73
2018-11-23T09:07:12.541Z,15.43
2018-11-23T09:09:41.008Z,23.97
2018-11-23T09:12:09.522Z,16.47
2018-11-23T09:14:37.938Z,14.93
2018-11-23T09:17:06.439Z,15.00
2018-11-23T09:19:34.892Z,15.40
2018-11-23T09:22:03.351Z,12.83
2018-11-23T09:24:31.888Z,13.07
2018-11-23T09:27:00.344Z,12.17
2018-11-23T09:29:28.809Z,13.90
2018-11-23T09:31:57.383Z,13.50
2018-11-23T09:34:25.853Z,11.53
2018-11-23T09:36:54.315Z,9.53
2018-11-23T09:39:22.792Z,8.90
2018-11-23T09:41:51.262Z,10.70
2018-11-23T09:44:19.784Z,9.80
2018-11-23T09:46:48.291Z,9.37
2018-11-23T09:49:16.743Z,9.43
2018-11-23T09:51:45.154Z,8.53
2018-11-23T09:54:13.599Z,10.10
2018-11-23T09:56:42.007Z,8.20
2018-11-23T09:59:10.438Z,10.33
2018-11-23T10:01:38.890Z,9.83
2018-11-23T10:04:07.360Z,9.90
2018-11-23T10:06:35.775Z,7.27
2018-11-23T10:09:04.567Z,7.83
2018-11-23T10:11:33.052Z,7.83
2018-11-23T10:14:01.473Z,6.83
2018-11-23T10:16:29.867Z,6.37
2018-11-23T10:18:58.335Z,7.13
2018-11-23T10:21:26.856Z,8.33
2018-11-23T10:24:01.673Z,8.97
2018-11-23T10:26:30.143Z,6.67
2018-11-23T10:28:58.636Z,8.50
2018-11-23T10:31:27.187Z,7.03
2018-11-23T10:33:55.686Z,7.30
2018-11-23T10:36:24.107Z,6.20
2018-11-23T10:38:52.556Z,8.60
2018-11-23T10:41:20.977Z,6.90
2018-11-23T10:43:49.430Z,5.23
2018-11-23T10:46:17.923Z,8.27
2018-11-23T10:48:46.506Z,8.03
2018-11-23T10:51:15.011Z,6.87
2018-11-23T10:53:43.475Z,4.67
2018-11-23T10:56:11.939Z,7.83
2018-11-23T10:58:40.433Z,5.47
2018-11-23T11:01:14.223Z,8.70
2018-11-23T11:03:47.788Z,7.20
2018-11-23T11:06:21.403Z,7.57
2018-11-23T11:08:49.869Z,9.30
2018-11-23T11:11:18.443Z,7.83
2018-11-23T11:13:46.845Z,8.10
2018-11-23T11:16:15.294Z,6.00
2018-11-23T11:18:43.734Z,5.03
2018-11-23T11:21:12.119Z,7.00
2018-11-23T11:23:40.494Z,5.03
2018-11-23T11:26:08.904Z,8.50
2018-11-23T11:28:37.346Z,8.90
2018-11-23T11:31:06.228Z,7.10
2018-11-23T11:33:34.754Z,7.43
2018-11-23T11:36:03.203Z,6.57
2018-11-23T11:38:31.687Z,7.90
2018-11-23T11:41:00.146Z,5.90
2018-11-23T11:43:28.541Z,8.20
2018-11-23T11:45:56.965Z,7.27
2018-11-23T11:48:25.384Z,6.17
2018-11-23T11:50:53.742Z,5.87
2018-11-23T11:53:22.163Z,7.50
2018-11-23T11:55:50.582Z,11.07
2018-11-23T11:58:19.083Z,7.77
2018-11-23T12:00:47.634Z,6.97
2018-11-23T12:03:16.991Z,12.33
2018-11-23T12:05:46.282Z,8.30
2018-11-23T12:08:14.771Z,7.50
2018-11-23T12:10:43.231Z,6.67
2018-11-23T12:13:11.690Z,8.77
2018-11-23T12:15:40.135Z,6.03
2018-11-23T12:18:08.580Z,5.93
2018-11-23T12:20:36.996Z,4.67
2018-11-23T12:23:05.797Z,5.73
2018-11-23T12:25:34.262Z,4.27
2018-11-23T12:28:02.713Z,3.10
2018-11-23T12:30:31.237Z,4.47
2018-11-23T12:33:00.559Z,3.83
2018-11-23T12:35:28.986Z,4.07
2018-11-23T12:40:43.269Z,5.60
2018-11-23T12:43:11.724Z,4.50
2018-11-23T12:45:40.139Z,2.77
2018-11-23T12:48:08.619Z,4.50
2018-11-23T12:50:37.056Z,3.27
2018-11-23T12:53:06.529Z,4.37
2018-11-23T12:55:34.067Z,2.93
2018-11-23T12:58:02.543Z,2.93
2018-11-23T13:00:31.125Z,4.27
2018-11-23T13:03:00.865Z,4.20
2018-11-23T13:05:30.151Z,3.50
2018-11-23T13:07:59.909Z,3.27
2018-11-23T13:10:28.664Z,3.40
2018-11-23T13:12:57.695Z,2.93
2018-11-23T13:15:26.262Z,3.00
2018-11-23T13:17:55.122Z,3.80
2018-11-23T13:20:23.636Z,4.33
2018-11-23T13:22:52.104Z,7.07
2018-11-23T13:25:21.979Z,2.53
2018-11-23T13:27:50.506Z,2.73
2018-11-23T13:30:20.986Z,2.83
2018-11-23T13:32:49.431Z,3.17
2018-11-23T13:35:18.584Z,4.87
2018-11-23T13:37:47.017Z,3.33
2018-11-23T13:40:17.684Z,4.73
2018-11-23T13:42:46.484Z,3.77
2018-11-23T13:45:16.336Z,4.07
2018-11-23T13:47:44.781Z,4.20
2018-11-23T13:50:14.710Z,3.57
2018-11-23T13:52:44.252Z,4.80
2018-11-23T13:55:12.713Z,4.30
2018-11-23T13:57:41.157Z,4.20
2018-11-23T14:00:15.120Z,3.20
2018-11-23T14:02:43.880Z,8.23
2018-11-23T14:05:14.100Z,10.47
2018-11-23T14:07:43.320Z,6.10
2018-11-23T14:10:13.564Z,6.57
2018-11-23T14:12:42.381Z,5.67
2018-11-23T14:15:14.341Z,10.60
2018-11-23T14:17:43.565Z,13.43
2018-11-23T14:20:13.243Z,10.20
2018-11-23T14:22:41.675Z,9.13
2018-11-23T14:25:12.069Z,7.67
2018-11-23T14:27:40.727Z,5.20
2018-11-23T14:30:12.348Z,6.10
2018-11-23T14:32:40.857Z,10.03
2018-11-23T14:35:11.728Z,11.20
2018-11-23T14:37:40.485Z,11.50
2018-11-23T14:40:09.610Z,10.90
2018-11-23T14:42:38.531Z,8.53
2018-11-23T14:45:09.883Z,8.80
2018-11-23T14:47:38.337Z,9.77
2018-11-23T14:50:09.857Z,9.97
2018-11-23T14:52:38.388Z,7.20
2018-11-23T14:55:08.100Z,10.20
2018-11-23T14:57:36.812Z,14.07
2018-11-23T15:00:09.865Z,13.20
2018-11-23T15:02:38.336Z,11.43
2018-11-23T15:05:07.179Z,12.33
2018-11-23T15:07:36.488Z,11.87
2018-11-23T15:10:07.313Z,12.30
2018-11-23T15:12:35.740Z,13.00
2018-11-23T15:15:04.312Z,13.90
2018-11-23T15:17:32.740Z,12.33
2018-11-23T15:20:01.237Z,12.47
2018-11-23T15:22:29.680Z,11.10
2018-11-23T15:24:58.071Z,10.97
2018-11-23T15:27:26.500Z,12.53
2018-11-23T15:29:54.984Z,15.97
2018-11-23T15:32:23.417Z,18.97
2018-11-23T15:34:51.900Z,12.97
2018-11-23T15:37:20.357Z,16.00
2018-11-23T15:39:48.763Z,22.65
2018-11-23T15:42:17.217Z,19.67
2018-11-23T15:44:45.657Z,16.63
2018-11-23T15:47:14.088Z,18.77
2018-11-23T15:49:42.638Z,20.10
2018-11-23T15:52:11.077Z,24.47
2018-11-23T15:54:39.540Z,20.70
2018-11-23T15:57:08.051Z,28.45
2018-11-23T15:59:36.726Z,20.88
2018-11-23T16:02:05.483Z,20.77
2018-11-23T16:04:39.456Z,23.50
2018-11-23T16:07:02.420Z,22.93
2018-11-23T16:09:31.657Z,22.83
2018-11-23T16:12:00.126Z,27.10
2018-11-23T16:14:28.575Z,20.05
2018-11-23T16:16:57.047Z,20.80
2018-11-23T16:19:25.530Z,19.02
2018-11-23T16:21:53.980Z,20.37
2018-11-23T16:24:22.402Z,24.12
2018-11-23T16:26:50.928Z,21.93
2018-11-23T16:29:19.348Z,21.50
2018-11-23T16:31:47.875Z,20.80
2018-11-23T16:34:16.255Z,23.60
2018-11-23T16:36:44.704Z,26.48
2018-11-23T16:39:13.588Z,21.52
2018-11-23T16:41:42.004Z,24.00
2018-11-23T16:44:10.428Z,28.45
2018-11-23T16:46:38.847Z,22.80
2018-11-23T16:49:07.264Z,26.25
2018-11-23T16:51:35.623Z,29.25
2018-11-23T16:54:04.051Z,25.05
2018-11-23T16:56:32.450Z,20.75
2018-11-23T16:59:00.848Z,20.43
2018-11-23T17:01:29.297Z,18.02
2018-11-23T17:03:59.631Z,15.50
2018-11-23T17:06:28.068Z,18.55
2018-11-23T17:08:56.472Z,16.00
2018-11-23T17:11:24.940Z,16.20
2018-11-23T17:13:53.964Z,14.73
2018-11-23T17:16:22.411Z,19.20
2018-11-23T17:18:50.833Z,17.40
2018-11-23T17:21:19.268Z,15.40
2018-11-23T17:23:47.736Z,22.32
2018-11-23T17:26:16.171Z,25.82
2018-11-23T17:28:44.588Z,22.58
2018-11-23T17:31:13.004Z,23.02
2018-11-23T17:33:41.435Z,22.20
2018-11-23T17:36:09.901Z,15.13
2018-11-23T17:38:46.788Z,16.85
2018-11-23T17:41:06.795Z,16.82
2018-11-23T17:43:35.253Z,11.78
2018-11-23T17:46:03.726Z,12.63
2018-11-23T17:48:32.215Z,11.95
2018-11-23T17:51:00.651Z,15.98
2018-11-23T17:53:29.071Z,14.23
2018-11-23T17:55:57.512Z,12.23
2018-11-23T17:58:25.970Z,12.13
2018-11-23T18:00:55.312Z,11.35
2018-11-23T18:03:23.731Z,11.85
2018-11-23T18:05:52.140Z,9.13
2018-11-23T18:08:20.544Z,10.65
2018-11-23T18:10:49.057Z,10.38
2018-11-23T18:13:17.527Z,11.50
2018-11-23T18:15:45.944Z,12.40
2018-11-23T18:18:14.426Z,10.00
2018-11-23T18:20:42.858Z,12.50
2018-11-23T18:23:11.292Z,16.73
2018-11-23T18:25:40.700Z,16.30
2018-11-23T18:28:09.127Z,18.55
2018-11-23T18:30:37.637Z,14.07
2018-11-23T18:33:07.354Z,12.93
2018-11-23T18:35:35.814Z,12.73
2018-11-23T18:38:04.320Z,11.80
2018-11-23T18:40:37.283Z,10.93
2018-11-23T18:43:01.191Z,11.08
2018-11-23T18:45:29.623Z,11.80
2018-11-23T18:47:58.008Z,11.25
2018-11-23T18:50:26.427Z,9.20
2018-11-23T18:52:54.864Z,14.15
2018-11-23T18:55:23.335Z,10.55
2018-11-23T18:57:51.781Z,12.10
2018-11-23T19:00:20.312Z,12.82
2018-11-23T19:02:48.781Z,17.02
2018-11-23T19:05:19.346Z,16.57
2018-11-23T19:07:47.792Z,25.12
2018-11-23T19:10:16.317Z,24.90
2018-11-23T19:12:44.822Z,19.85
2018-11-23T19:15:15.542Z,14.23
2018-11-23T19:17:44.032Z,16.95
2018-11-23T19:20:17.341Z,10.75
2018-11-23T19:22:46.748Z,10.85
2018-11-23T19:25:15.198Z,9.68
2018-11-23T19:27:43.627Z,9.95
2018-11-23T19:30:14.166Z,9.43
2018-11-23T19:32:42.599Z,7.53
2018-11-23T19:35:11.045Z,8.33
2018-11-23T19:37:39.535Z,10.38
2018-11-23T19:40:13.723Z,11.85
2018-11-23T19:42:42.295Z,12.43
2018-11-23T19:45:11.828Z,12.78
2018-11-23T19:47:40.227Z,8.75
2018-11-23T19:50:11.129Z,8.40
2018-11-23T19:52:39.831Z,8.48
2018-11-23T19:55:08.705Z,12.35
2018-11-23T19:57:37.126Z,12.68
2018-11-23T20:00:10.403Z,12.45
2018-11-23T20:02:38.797Z,9.03
2018-11-23T20:05:07.183Z,11.73
2018-11-23T20:07:35.609Z,13.53
2018-11-23T20:10:04.392Z,14.13
2018-11-23T20:12:32.805Z,11.28
2018-11-23T20:15:01.337Z,12.63
2018-11-23T20:17:29.857Z,14.80
2018-11-23T20:19:58.272Z,13.30
2018-11-23T20:22:26.730Z,13.45
2018-11-23T20:24:55.180Z,13.13
2018-11-23T20:27:23.584Z,15.03
2018-11-23T20:29:52.069Z,11.20
2018-11-23T20:32:20.478Z,16.10
2018-11-23T20:34:48.917Z,14.30
2018-11-23T20:37:17.336Z,13.25
2018-11-23T20:39:45.748Z,17.05
2018-11-23T20:42:14.176Z,18.25
2018-11-23T20:44:42.596Z,13.88
2018-11-23T20:47:11.017Z,17.70
2018-11-23T20:49:45.725Z,18.92
2018-11-23T20:52:07.909Z,19.25
2018-11-23T20:54:36.357Z,16.82
2018-11-23T20:57:04.814Z,15.03
2018-11-23T20:59:38.668Z,13.13
2018-11-23T21:02:01.792Z,13.15
2018-11-23T21:04:30.199Z,14.30
2018-11-23T21:06:58.619Z,15.08
2018-11-23T21:09:31.163Z,16.45
2018-11-23T21:11:55.527Z,14.20
2018-11-23T21:14:23.936Z,15.60
2018-11-23T21:16:52.367Z,16.70
2018-11-23T21:19:20.881Z,20.23
2018-11-23T21:21:49.309Z,16.00
2018-11-23T21:24:17.730Z,17.10
2018-11-23T21:26:46.156Z,20.10
2018-11-23T21:29:14.608Z,14.87
2018-11-23T21:31:43.010Z,14.75
2018-11-23T21:34:11.530Z,16.42
2018-11-23T21:36:39.972Z,14.73
2018-11-23T21:39:13.740Z,20.23
2018-11-23T21:41:38.643Z,20.27
2018-11-23T21:44:07.107Z,18.05
2018-11-23T21:46:35.564Z,15.35
2018-11-23T21:49:04.011Z,16.37
2018-11-23T21:51:32.483Z,11.33
2018-11-23T21:54:00.925Z,12.63
2018-11-23T21:56:29.332Z,13.32
2018-11-23T21:58:57.749Z,12.30
2018-11-23T22:01:26.179Z,12.82
2018-11-23T22:03:54.646Z,10.88
2018-11-23T22:06:23.067Z,12.95
2018-11-23T22:08:51.485Z,14.40
2018-11-23T22:11:20.622Z,13.35
2018-11-23T22:13:49.052Z,13.38
2018-11-23T22:16:17.587Z,14.68
2018-11-23T22:18:46.037Z,14.53
2018-11-23T22:21:14.476Z,16.65
2018-11-23T22:23:42.929Z,15.43
2018-11-23T22:26:11.394Z,17.05
2018-11-23T22:28:39.890Z,17.65
2018-11-23T22:31:08.415Z,16.15
2018-11-23T22:33:37.827Z,15.00
2018-11-23T22:36:06.262Z,14.90
2018-11-23T22:38:34.638Z,17.57
2018-11-23T22:41:03.070Z,19.12
2018-11-23T22:43:31.449Z,20.12
2018-11-23T22:45:59.836Z,16.37
2018-11-23T22:48:28.240Z,16.80
2018-11-23T22:50:56.634Z,15.53
2018-11-23T22:53:25.145Z,14.90
2018-11-23T22:55:53.488Z,17.87
2018-11-23T22:58:22.025Z,15.30
2018-11-23T23:01:02.546Z,17.15
2018-11-23T23:03:31.289Z,14.73
2018-11-23T23:06:00.141Z,13.93
2018-11-23T23:08:28.138Z,14.65
2018-11-23T23:10:56.459Z,13.65
2018-11-23T23:13:24.812Z,20.43
2018-11-23T23:15:53.294Z,11.83
2018-11-23T23:18:21.723Z,10.82
2018-11-23T23:20:50.154Z,11.97
2018-11-23T23:23:18.576Z,11.75
2018-11-23T23:25:47.020Z,13.70
2018-11-23T23:28:15.545Z,16.52
2018-11-23T23:30:43.975Z,11.97
2018-11-23T23:33:12.479Z,10.60
2018-11-23T23:35:40.912Z,11.00
2018-11-23T23:38:09.240Z,15.95
2018-11-23T23:40:37.616Z,11.90
2018-11-23T23:43:05.936Z,11.65
2018-11-23T23:45:34.380Z,11.68
2018-11-23T23:48:02.707Z,10.28
2018-11-23T23:50:31.041Z,10.72
2018-11-23T23:52:59.337Z,9.65
2018-11-23T23:55:27.635Z,13.98
2018-11-23T23:57:55.929Z,13.70
